Time;durP1;ratioP1;P1;durP2;ratioP2;P2;SDS_P1;SDS_P2;PMS_P1;PMS_P2;Temp;Humidity;BMP_temperature;BMP_pressure;BME280_temperature;BME280_humidity;BME280_pressure;Samples;Min_cycle;Max_cycle;Signal;HPM_P1;HPM_P2
2024/01/08 00:00:22;;;;;;;10.00;6.67;;;-3.40;99.90;;;;;;5038125;28;20029;-75
2024/01/08 00:02:48;;;;;;;17.30;10.03;;;-3.50;99.90;;;;;;5038258;28;20656;-75
2024/01/08 00:05:13;;;;;;;9.17;5.37;;;-3.50;99.90;;;;;;5037985;28;20075;-76
2024/01/08 00:07:39;;;;;;;18.17;8.77;;;-3.60;99.90;;;;;;5038047;28;20031;-74
2024/01/08 00:10:05;;;;;;;20.27;11.53;;;-3.60;99.90;;;;;;5038084;28;20391;-75
2024/01/08 00:12:30;;;;;;;19.17;9.80;;;-3.70;99.90;;;;;;5037943;28;20121;-76
2024/01/08 00:14:56;;;;;;;8.63;5.90;;;-3.70;99.90;;;;;;5038227;28;20219;-75
2024/01/08 00:17:21;;;;;;;9.50;5.93;;;-3.80;99.90;;;;;;5038913;28;20082;-75
2024/01/08 00:19:47;;;;;;;14.80;8.20;;;-3.80;99.90;;;;;;5038467;28;20017;-74
2024/01/08 00:22:12;;;;;;;15.30;8.67;;;-3.80;99.90;;;;;;5038799;28;20021;-75
2024/01/08 00:24:38;;;;;;;11.37;6.37;;;-3.90;99.90;;;;;;5038433;28;20079;-75
2024/01/08 00:27:04;;;;;;;23.73;11.57;;;-3.80;99.90;;;;;;5039660;28;20160;-75
2024/01/08 00:29:29;;;;;;;9.30;6.07;;;-3.90;99.90;;;;;;5041757;28;20094;-75
2024/01/08 00:31:55;;;;;;;8.67;5.23;;;-3.90;99.90;;;;;;5042379;28;21325;-76
2024/01/08 00:34:20;;;;;;;9.43;5.30;;;-3.90;99.90;;;;;;5042796;28;20049;-75
2024/01/08 00:36:46;;;;;;;7.70;4.97;;;-4.00;99.90;;;;;;5042137;28;20462;-74
2024/01/08 00:39:12;;;;;;;5.37;4.40;;;-4.00;99.90;;;;;;5041420;28;20426;-74
2024/01/08 00:41:37;;;;;;;8.67;5.10;;;-4.00;99.90;;;;;;5040597;28;20480;-74
2024/01/08 00:44:03;;;;;;;8.17;5.23;;;-4.00;99.90;;;;;;5041396;28;20063;-75
2024/01/08 00:46:29;;;;;;;8.03;5.37;;;-4.00;99.90;;;;;;5041976;28;20640;-75
2024/01/08 00:48:54;;;;;;;7.90;4.87;;;-4.10;99.90;;;;;;5042077;28;20028;-75
2024/01/08 00:51:20;;;;;;;6.80;4.40;;;-4.10;99.90;;;;;;5043246;28;20444;-75
2024/01/08 00:53:45;;;;;;;7.30;5.37;;;-4.10;99.90;;;;;;5041865;28;20202;-74
2024/01/08 00:56:13;;;;;;;9.23;6.13;;;-4.10;99.90;;;;;;5042145;28;20032;-76
2024/01/08 00:58:41;;;;;;;7.33;5.03;;;-4.20;99.90;;;;;;5041442;28;20919;-75
2024/01/08 01:01:07;;;;;;;7.53;4.77;;;-4.10;99.90;;;;;;5041476;28;20072;-75
2024/01/08 01:03:33;;;;;;;9.37;5.10;;;-4.10;99.90;;;;;;5040656;28;20033;-75
2024/01/08 01:05:58;;;;;;;8.67;5.03;;;-4.10;99.90;;;;;;5041089;28;20044;-75
2024/01/08 01:08:24;;;;;;;9.77;5.07;;;-4.10;99.90;;;;;;5041235;28;20021;-75
2024/01/08 01:10:49;;;;;;;7.50;5.37;;;-4.10;99.90;;;;;;5040511;28;21408;-75
2024/01/08 01:13:15;;;;;;;6.70;5.10;;;-4.10;99.90;;;;;;5041738;28;20646;-75
2024/01/08 01:15:41;;;;;;;9.30;5.30;;;-4.10;99.90;;;;;;5042024;28;20040;-75
2024/01/08 01:18:06;;;;;;;7.83;4.90;;;-4.10;99.90;;;;;;5041432;28;21380;-74
2024/01/08 01:20:32;;;;;;;10.43;5.93;;;-4.10;99.90;;;;;;5042052;28;20372;-75
2024/01/08 01:22:58;;;;;;;6.80;4.90;;;-4.10;99.90;;;;;;5041756;28;20468;-74
2024/01/08 01:25:23;;;;;;;8.07;5.33;;;-4.20;99.90;;;;;;5040959;28;20060;-74
2024/01/08 01:27:49;;;;;;;7.07;5.00;;;-4.20;99.90;;;;;;5041129;28;20032;-74
2024/01/08 01:30:15;;;;;;;7.37;5.00;;;-4.20;99.90;;;;;;5041888;28;20095;-74
2024/01/08 01:32:40;;;;;;;8.20;4.93;;;-4.20;99.90;;;;;;5041291;28;20464;-74
2024/01/08 01:35:06;;;;;;;8.50;5.83;;;-4.20;99.90;;;;;;5041900;28;20094;-75
2024/01/08 01:37:32;;;;;;;8.10;4.90;;;-4.20;99.90;;;;;;5040742;28;20524;-76
2024/01/08 01:39:57;;;;;;;7.00;4.90;;;-4.20;99.90;;;;;;5040740;28;20079;-75
2024/01/08 01:42:23;;;;;;;7.07;4.43;;;-4.20;99.90;;;;;;5040733;28;20021;-75
2024/01/08 01:44:48;;;;;;;6.30;4.47;;;-4.20;99.90;;;;;;5041282;28;20136;-74
2024/01/08 01:47:15;;;;;;;6.33;4.47;;;-4.30;99.90;;;;;;5041493;28;20032;-75
2024/01/08 01:49:41;;;;;;;7.47;5.07;;;-4.30;99.90;;;;;;5040994;28;20025;-74
2024/01/08 01:52:08;;;;;;;6.67;4.40;;;-4.30;99.90;;;;;;5041548;28;20040;-73
2024/01/08 01:54:35;;;;;;;8.27;5.40;;;-4.30;99.90;;;;;;5040747;28;20032;-75
2024/01/08 01:57:01;;;;;;;8.27;5.23;;;-4.40;99.90;;;;;;5040246;28;20021;-74
2024/01/08 01:59:28;;;;;;;6.93;4.33;;;-4.40;99.90;;;;;;5040353;28;20017;-74
2024/01/08 02:01:55;;;;;;;7.00;4.40;;;-4.40;99.90;;;;;;5039969;28;20025;-75
2024/01/08 02:04:23;;;;;;;8.10;5.30;;;-4.40;99.90;;;;;;5040680;28;20059;-74
2024/01/08 02:06:50;;;;;;;7.50;4.97;;;-4.30;99.90;;;;;;5040317;28;20102;-74
2024/01/08 02:09:16;;;;;;;11.17;4.80;;;-4.40;99.90;;;;;;5040889;28;20028;-75
2024/01/08 02:11:42;;;;;;;6.77;4.90;;;-4.40;99.90;;;;;;5040860;28;20029;-75
2024/01/08 02:14:08;;;;;;;7.03;4.37;;;-4.30;99.90;;;;;;5040558;28;20025;-75
2024/01/08 02:16:35;;;;;;;7.43;4.90;;;-4.40;99.90;;;;;;5039654;28;20025;-75
2024/01/08 02:19:01;;;;;;;8.77;4.80;;;-4.40;99.90;;;;;;5040484;28;20047;-74
2024/01/08 02:21:26;;;;;;;6.97;5.03;;;-4.40;99.90;;;;;;5039997;28;20033;-75
2024/01/08 02:23:52;;;;;;;8.77;5.57;;;-4.50;99.90;;;;;;5039590;28;20091;-74
2024/01/08 02:26:18;;;;;;;8.83;5.57;;;-4.40;99.90;;;;;;5039684;28;20064;-75
2024/01/08 02:28:44;;;;;;;7.57;5.33;;;-4.50;99.90;;;;;;5039462;28;20453;-74
2024/01/08 02:31:09;;;;;;;7.53;4.97;;;-4.50;99.90;;;;;;5039856;28;20109;-75
2024/01/08 02:33:35;;;;;;;6.90;4.80;;;-4.50;99.90;;;;;;5039843;28;20025;-74
2024/01/08 02:36:01;;;;;;;7.67;5.10;;;-4.40;99.90;;;;;;5040090;28;20091;-74
2024/01/08 02:38:26;;;;;;;9.60;5.33;;;-4.50;99.90;;;;;;5039613;28;20033;-74
2024/01/08 02:40:52;;;;;;;9.07;5.17;;;-4.50;99.90;;;;;;5038820;28;20032;-75
2024/01/08 02:43:17;;;;;;;7.00;4.93;;;-4.50;99.90;;;;;;5040009;28;20109;-75
2024/01/08 02:45:43;;;;;;;9.30;5.23;;;-4.40;99.90;;;;;;5038606;28;20393;-74
2024/01/08 02:48:09;;;;;;;10.13;5.10;;;-4.50;99.90;;;;;;5039394;28;20108;-75
2024/01/08 02:50:34;;;;;;;7.60;4.77;;;-4.50;99.90;;;;;;5038556;28;20021;-75
2024/01/08 02:53:00;;;;;;;7.17;5.27;;;-4.40;99.90;;;;;;5039251;28;20472;-75
2024/01/08 02:55:25;;;;;;;8.10;5.33;;;-4.40;99.90;;;;;;5039003;28;20025;-74
2024/01/08 02:57:51;;;;;;;8.83;5.37;;;-4.50;99.90;;;;;;5039273;28;20031;-74
2024/01/08 03:00:17;;;;;;;8.20;5.40;;;-4.50;99.90;;;;;;5038584;28;20025;-75
2024/01/08 03:02:42;;;;;;;7.07;4.80;;;-4.50;99.90;;;;;;5038938;28;20037;-75
2024/01/08 03:05:08;;;;;;;7.83;5.23;;;-4.50;99.90;;;;;;5039171;28;20385;-75
2024/01/08 03:07:33;;;;;;;9.00;5.80;;;-4.40;99.90;;;;;;5038647;28;20025;-75
2024/01/08 03:09:59;;;;;;;7.43;4.80;;;-4.50;99.90;;;;;;5039022;28;20025;-75
2024/01/08 03:12:25;;;;;;;6.80;4.87;;;-4.50;99.90;;;;;;5039477;28;20033;-75
2024/01/08 03:14:51;;;;;;;7.97;4.70;;;-4.50;99.90;;;;;;5039819;28;20060;-75
2024/01/08 03:17:17;;;;;;;7.83;5.33;;;-4.40;99.90;;;;;;5038619;28;20127;-74
2024/01/08 03:19:43;;;;;;;9.20;4.90;;;-4.50;99.90;;;;;;5039245;28;20024;-74
2024/01/08 03:22:08;;;;;;;7.47;5.27;;;-4.40;99.90;;;;;;5039062;28;20071;-74
2024/01/08 03:24:36;;;;;;;7.90;5.17;;;-4.40;99.90;;;;;;5038334;28;20496;-74
2024/01/08 03:27:02;;;;;;;9.07;5.03;;;-4.40;99.90;;;;;;5038051;28;20095;-74
2024/01/08 03:29:28;;;;;;;7.33;5.13;;;-4.40;99.90;;;;;;5038132;28;20070;-74
2024/01/08 03:31:53;;;;;;;7.13;5.07;;;-4.40;99.90;;;;;;5037765;28;20037;-75
2024/01/08 03:34:19;;;;;;;8.40;5.63;;;-4.40;99.90;;;;;;5037850;28;20434;-75
2024/01/08 03:36:46;;;;;;;7.50;5.30;;;-4.50;99.90;;;;;;5038095;28;20069;-74
2024/01/08 03:39:12;;;;;;;7.80;4.90;;;-4.50;99.90;;;;;;5038574;28;20025;-75
2024/01/08 03:41:39;;;;;;;10.03;5.87;;;-4.40;99.90;;;;;;5037741;28;20427;-75
2024/01/08 03:44:05;;;;;;;8.07;5.07;;;-4.50;99.90;;;;;;5038365;28;20032;-75
2024/01/08 03:46:31;;;;;;;6.97;5.17;;;-4.40;99.90;;;;;;5037931;28;20127;-75
2024/01/08 03:48:57;;;;;;;7.23;4.83;;;-4.50;99.90;;;;;;5038372;28;20120;-75
2024/01/08 03:51:23;;;;;;;7.07;4.90;;;-4.50;99.90;;;;;;5038223;28;21470;-75
2024/01/08 03:53:48;;;;;;;7.43;4.80;;;-4.50;99.90;;;;;;5039159;28;20024;-75
2024/01/08 03:56:14;;;;;;;6.40;5.03;;;-4.40;99.90;;;;;;5038478;28;20013;-75
2024/01/08 03:58:39;;;;;;;7.53;5.27;;;-4.50;99.90;;;;;;5038631;28;20972;-77
2024/01/08 04:01:05;;;;;;;10.07;5.93;;;-4.40;99.90;;;;;;5038544;28;20033;-76
2024/01/08 04:03:30;;;;;;;7.37;5.17;;;-4.40;99.90;;;;;;5041303;28;20032;-74
2024/01/08 04:05:56;;;;;;;8.03;5.37;;;-4.40;99.90;;;;;;5041326;28;20084;-76
2024/01/08 04:08:21;;;;;;;8.90;5.53;;;-4.40;99.90;;;;;;5041185;28;20072;-76
2024/01/08 04:10:47;;;;;;;8.97;5.33;;;-4.40;99.90;;;;;;5041260;28;20127;-76
2024/01/08 04:13:12;;;;;;;11.93;5.60;;;-4.40;99.90;;;;;;5042022;28;20067;-76
2024/01/08 04:15:38;;;;;;;8.60;5.30;;;-4.40;99.90;;;;;;5041334;28;20036;-77
2024/01/08 04:18:04;;;;;;;7.33;5.47;;;-4.40;99.90;;;;;;5041364;28;20067;-76
2024/01/08 04:20:30;;;;;;;7.00;5.83;;;-4.40;99.90;;;;;;5041359;28;20048;-77
2024/01/08 04:22:55;;;;;;;8.57;5.70;;;-4.40;99.90;;;;;;5041557;28;20531;-76
2024/01/08 04:25:21;;;;;;;7.63;5.40;;;-4.40;99.90;;;;;;5040195;28;20064;-76
2024/01/08 04:27:48;;;;;;;7.97;5.33;;;-4.40;99.90;;;;;;5039605;28;21499;-76
2024/01/08 04:30:14;;;;;;;7.20;5.60;;;-4.40;99.90;;;;;;5040632;28;20029;-77
2024/01/08 04:32:40;;;;;;;9.20;5.47;;;-4.40;99.90;;;;;;5041168;28;20029;-76
2024/01/08 04:35:06;;;;;;;7.23;4.90;;;-4.40;99.90;;;;;;5039494;28;20028;-76
2024/01/08 04:37:31;;;;;;;8.50;5.63;;;-4.40;99.90;;;;;;5041627;28;20041;-76
2024/01/08 04:39:57;;;;;;;7.93;5.13;;;-4.40;99.90;;;;;;5040702;28;20047;-76
2024/01/08 04:42:22;;;;;;;8.33;5.20;;;-4.40;99.90;;;;;;5042767;28;20064;-75
2024/01/08 04:44:48;;;;;;;8.20;5.23;;;-4.40;99.90;;;;;;5041295;28;20048;-77
2024/01/08 04:47:14;;;;;;;15.27;13.17;;;-4.40;99.90;;;;;;5041325;28;20484;-77
2024/01/08 04:49:40;;;;;;;9.93;7.70;;;-4.40;99.90;;;;;;5040036;28;20140;-77
2024/01/08 04:52:06;;;;;;;10.07;5.57;;;-4.40;99.90;;;;;;5041148;28;20423;-76
2024/01/08 04:54:32;;;;;;;7.97;5.40;;;-4.40;99.90;;;;;;5041134;28;20633;-76
2024/01/08 04:56:57;;;;;;;9.60;5.67;;;-4.40;99.90;;;;;;5039126;28;20032;-76
2024/01/08 04:59:23;;;;;;;8.43;5.37;;;-4.40;99.90;;;;;;5041058;28;20037;-76
2024/01/08 05:01:50;;;;;;;9.43;5.80;;;-4.40;99.90;;;;;;5040624;28;20037;-76
2024/01/08 05:04:16;;;;;;;8.30;5.93;;;-4.40;99.90;;;;;;5040297;28;20021;-76
2024/01/08 05:06:43;;;;;;;11.00;5.63;;;-4.40;99.90;;;;;;5040663;28;20053;-76
2024/01/08 05:09:08;;;;;;;7.73;5.60;;;-4.30;99.90;;;;;;5039262;28;20036;-76
2024/01/08 05:11:34;;;;;;;7.90;5.20;;;-4.40;99.90;;;;;;5039728;28;20020;-76
2024/01/08 05:14:00;;;;;;;9.70;6.53;;;-4.40;99.90;;;;;;5040025;28;20024;-77
2024/01/08 05:16:26;;;;;;;8.20;5.47;;;-4.30;99.90;;;;;;5040873;28;20688;-77
2024/01/08 05:18:52;;;;;;;8.00;5.63;;;-4.30;99.90;;;;;;5039428;28;20110;-76
2024/01/08 05:21:17;;;;;;;8.63;5.90;;;-4.30;99.90;;;;;;5040035;28;20117;-76
2024/01/08 05:23:43;;;;;;;8.03;5.87;;;-4.30;99.90;;;;;;5039652;28;20021;-76
2024/01/08 05:26:08;;;;;;;8.33;5.40;;;-4.30;99.90;;;;;;5039595;28;20043;-76
2024/01/08 05:28:34;;;;;;;27.10;15.43;;;-4.30;99.90;;;;;;5039594;28;20120;-76
2024/01/08 05:31:00;;;;;;;140.80;64.47;;;-4.30;99.90;;;;;;5040151;28;20029;-76
2024/01/08 05:33:26;;;;;;;15.60;10.40;;;-4.30;99.90;;;;;;5040504;28;20072;-76
2024/01/08 05:35:51;;;;;;;13.87;9.70;;;-4.30;99.90;;;;;;5040080;28;20391;-76
2024/01/08 05:38:17;;;;;;;9.30;7.13;;;-4.30;99.90;;;;;;5039259;28;20083;-75
2024/01/08 05:40:42;;;;;;;11.17;7.87;;;-4.30;99.90;;;;;;5039947;28;20839;-77
2024/01/08 05:43:08;;;;;;;7.23;5.87;;;-4.30;99.90;;;;;;5040669;28;20108;-77
2024/01/08 05:45:33;;;;;;;11.70;10.23;;;-4.30;99.90;;;;;;5039764;28;20116;-76
2024/01/08 05:47:59;;;;;;;8.90;6.17;;;-4.30;99.90;;;;;;5040067;28;20021;-75
2024/01/08 05:50:27;;;;;;;9.07;6.60;;;-4.30;99.90;;;;;;5040946;28;20462;-76
2024/01/08 05:52:55;;;;;;;9.80;6.50;;;-4.30;99.90;;;;;;5040525;28;20037;-77
2024/01/08 05:55:21;;;;;;;8.77;5.70;;;-4.30;99.90;;;;;;5043175;28;20035;-81
2024/01/08 05:57:47;;;;;;;9.97;5.73;;;-4.30;99.90;;;;;;5045027;28;20032;-78
2024/01/08 06:00:14;;;;;;;9.20;6.10;;;-4.30;99.90;;;;;;5041782;28;20638;-84
2024/01/08 06:02:39;;;;;;;8.90;6.17;;;-4.30;99.90;;;;;;5048184;28;20059;-84
2024/01/08 06:05:06;;;;;;;9.40;5.80;;;-4.30;99.90;;;;;;5047081;28;20029;-84
2024/01/08 06:07:32;;;;;;;8.43;6.20;;;-4.30;99.90;;;;;;5045973;28;20044;-84
2024/01/08 06:09:57;;;;;;;8.63;6.33;;;-4.30;99.90;;;;;;5045621;28;20133;-84
2024/01/08 06:12:23;;;;;;;9.77;6.30;;;-4.40;99.90;;;;;;5044950;28;20025;-84
2024/01/08 06:14:49;;;;;;;7.83;6.13;;;-4.30;99.90;;;;;;5046028;28;20029;-84
2024/01/08 06:17:14;;;;;;;8.07;5.67;;;-4.30;99.90;;;;;;5044636;28;20044;-84
2024/01/08 06:19:41;;;;;;;7.70;5.37;;;-4.30;99.90;;;;;;5045558;28;20029;-85
2024/01/08 06:22:06;;;;;;;8.33;5.60;;;-4.30;99.90;;;;;;5044654;28;20096;-85
2024/01/08 06:24:32;;;;;;;9.47;6.47;;;-4.30;99.90;;;;;;5042388;28;20834;-84
2024/01/08 06:26:58;;;;;;;9.40;6.47;;;-4.30;99.90;;;;;;5043676;28;20060;-85
2024/01/08 06:29:24;;;;;;;10.27;6.73;;;-4.30;99.90;;;;;;5046488;28;20144;-85
2024/01/08 06:31:50;;;;;;;9.37;7.27;;;-4.30;99.90;;;;;;5050121;28;20148;-82
2024/01/08 06:34:15;;;;;;;11.47;7.17;;;-4.30;99.90;;;;;;5041555;28;20032;-84
2024/01/08 06:36:41;;;;;;;11.50;7.77;;;-4.30;99.90;;;;;;5035866;28;20029;-72
2024/01/08 06:39:09;;;;;;;11.20;6.43;;;-4.30;99.90;;;;;;5036095;28;20175;-71
2024/01/08 06:41:38;;;;;;;10.73;6.60;;;-4.30;99.90;;;;;;5041233;28;20116;-84
2024/01/08 06:44:04;;;;;;;12.03;7.23;;;-4.30;99.90;;;;;;5041215;28;20084;-84
2024/01/08 06:46:30;;;;;;;11.20;6.70;;;-4.20;99.90;;;;;;5040414;28;20044;-84
2024/01/08 06:48:55;;;;;;;9.70;7.33;;;-4.20;99.90;;;;;;5040845;28;20555;-84
2024/01/08 06:51:21;;;;;;;9.30;6.50;;;-4.20;99.90;;;;;;5046115;28;20117;-84
2024/01/08 06:53:47;;;;;;;12.37;7.40;;;-4.20;99.90;;;;;;5042233;28;20057;-85
2024/01/08 06:56:13;;;;;;;10.17;6.50;;;-4.20;99.90;;;;;;5042119;28;20118;-84
2024/01/08 06:58:38;;;;;;;12.50;7.23;;;-4.20;99.90;;;;;;5042753;28;21417;-83
2024/01/08 07:01:05;;;;;;;10.20;6.77;;;-4.30;99.90;;;;;;5044979;28;20029;-82
2024/01/08 07:03:31;;;;;;;12.53;7.77;;;-4.20;99.90;;;;;;5042599;28;20025;-84
2024/01/08 07:05:56;;;;;;;10.23;6.93;;;-4.20;99.90;;;;;;5042121;28;20051;-83
2024/01/08 07:08:22;;;;;;;11.27;7.60;;;-4.30;99.90;;;;;;5041166;28;21379;-84
2024/01/08 07:10:47;;;;;;;10.20;7.27;;;-4.20;99.90;;;;;;5040482;28;20040;-84
2024/01/08 07:13:15;;;;;;;9.87;6.83;;;-4.20;99.90;;;;;;5041181;28;20021;-84
2024/01/08 07:15:47;;;;;;;11.93;7.53;;;-4.30;99.90;;;;;;5040094;28;20040;-83
2024/01/08 07:18:13;;;;;;;13.13;8.17;;;-4.20;99.90;;;;;;5039926;28;20037;-83
2024/01/08 07:20:40;;;;;;;13.07;8.17;;;-4.20;99.90;;;;;;5036495;28;20053;-84
2024/01/08 07:23:08;;;;;;;11.07;7.57;;;-4.20;99.90;;;;;;5040545;28;20032;-83
2024/01/08 07:25:38;;;;;;;14.30;7.40;;;-4.20;99.90;;;;;;5040877;28;20513;-83
2024/01/08 07:28:08;;;;;;;15.13;8.57;;;-4.20;99.90;;;;;;5042051;28;20036;-83
2024/01/08 07:30:34;;;;;;;12.87;8.20;;;-4.20;99.90;;;;;;5040535;28;20802;-84
2024/01/08 07:33:00;;;;;;;14.57;9.47;;;-4.20;99.90;;;;;;5040350;28;20036;-83
2024/01/08 07:35:25;;;;;;;11.40;8.03;;;-4.10;99.90;;;;;;5041377;28;20029;-83
2024/01/08 07:37:55;;;;;;;12.13;8.53;;;-4.10;99.90;;;;;;5040067;28;20096;-83
2024/01/08 07:40:27;;;;;;;14.03;8.40;;;-4.10;99.90;;;;;;5039780;28;20033;-83
2024/01/08 07:42:56;;;;;;;12.57;8.40;;;-4.10;99.90;;;;;;5042633;28;21464;-81
2024/01/08 07:45:23;;;;;;;12.87;8.20;;;-4.00;99.90;;;;;;5041074;28;20549;-83
2024/01/08 07:47:50;;;;;;;12.30;8.57;;;-4.00;99.90;;;;;;5039867;28;20059;-83
2024/01/08 07:50:16;;;;;;;13.30;8.50;;;-4.00;99.90;;;;;;5039810;28;20420;-83
2024/01/08 07:52:41;;;;;;;12.37;8.10;;;-4.00;99.90;;;;;;5042014;28;20021;-82
2024/01/08 07:55:08;;;;;;;10.27;7.07;;;-4.00;99.90;;;;;;5041093;28;20051;-82
2024/01/08 07:57:34;;;;;;;14.43;9.33;;;-3.90;99.90;;;;;;5042558;28;20025;-81
2024/01/08 08:00:00;;;;;;;14.33;9.03;;;-3.90;99.90;;;;;;5040224;28;20109;-84
2024/01/08 08:02:26;;;;;;;12.87;8.50;;;-3.90;99.90;;;;;;5037451;28;20209;-83
2024/01/08 08:04:53;;;;;;;15.83;8.83;;;-3.90;99.90;;;;;;5042022;28;20043;-84
2024/01/08 08:07:19;;;;;;;11.87;7.73;;;-3.90;99.90;;;;;;5042305;28;20039;-84
2024/01/08 08:09:45;;;;;;;17.90;9.03;;;-3.80;99.90;;;;;;5041140;28;20025;-85
2024/01/08 08:12:11;;;;;;;13.40;8.50;;;-3.80;99.90;;;;;;5042539;28;20033;-84
2024/01/08 08:14:36;;;;;;;13.57;8.73;;;-3.80;99.90;;;;;;5042891;28;20032;-84
2024/01/08 08:17:05;;;;;;;18.60;10.77;;;-3.80;99.90;;;;;;5039373;28;20029;-84
2024/01/08 08:19:31;;;;;;;11.53;8.30;;;-3.70;99.90;;;;;;5043905;28;20163;-83
2024/01/08 08:21:56;;;;;;;12.17;8.00;;;-3.70;99.90;;;;;;5044686;28;20119;-84
2024/01/08 08:24:22;;;;;;;15.27;8.90;;;-3.70;99.90;;;;;;5043771;28;20408;-84
2024/01/08 08:26:48;;;;;;;10.97;7.97;;;-3.70;99.90;;;;;;5042728;28;20048;-84
2024/01/08 08:29:14;;;;;;;14.60;8.87;;;-3.60;99.90;;;;;;5045290;28;20029;-84
2024/01/08 08:31:39;;;;;;;17.23;11.57;;;-3.60;99.90;;;;;;5050636;28;20075;-82
2024/01/08 08:34:05;;;;;;;13.60;8.27;;;-3.60;99.90;;;;;;5047881;28;20053;-84
2024/01/08 08:36:31;;;;;;;15.73;9.37;;;-3.60;99.90;;;;;;5043709;28;20025;-84
2024/01/08 08:38:56;;;;;;;22.23;17.07;;;-3.50;99.90;;;;;;5042024;28;20025;-84
2024/01/08 08:41:22;;;;;;;11.67;8.07;;;-3.50;99.90;;;;;;5037984;28;20106;-83
2024/01/08 08:43:48;;;;;;;18.13;13.27;;;-3.50;99.90;;;;;;5038561;28;20052;-84
2024/01/08 08:46:15;;;;;;;13.70;9.33;;;-3.50;99.90;;;;;;5040805;28;20033;-84
2024/01/08 08:48:40;;;;;;;13.80;9.60;;;-3.40;99.90;;;;;;5044227;28;20401;-84
2024/01/08 08:51:06;;;;;;;14.87;8.90;;;-3.40;99.90;;;;;;5042966;28;20036;-84
2024/01/08 08:53:31;;;;;;;13.83;8.90;;;-3.40;99.90;;;;;;5045344;28;20111;-83
2024/01/08 08:55:57;;;;;;;14.43;9.60;;;-3.40;99.90;;;;;;5048028;28;20029;-80
2024/01/08 08:58:23;;;;;;;13.80;8.80;;;-3.40;99.90;;;;;;5046906;28;20036;-81
2024/01/08 09:00:50;;;;;;;13.73;8.63;;;-3.30;99.90;;;;;;5045996;28;20144;-82
2024/01/08 09:03:16;;;;;;;16.73;9.57;;;-3.30;99.90;;;;;;5045521;28;20052;-81
2024/01/08 09:05:41;;;;;;;12.50;9.20;;;-3.20;99.90;;;;;;5046018;28;20057;-83
2024/01/08 09:08:07;;;;;;;12.40;8.30;;;-3.20;99.90;;;;;;5045179;28;20033;-83
2024/01/08 09:10:35;;;;;;;11.90;7.70;;;-3.10;99.90;;;;;;5047301;28;20029;-82
2024/01/08 09:13:01;;;;;;;13.70;8.83;;;-3.10;99.90;;;;;;5047396;28;20093;-83
2024/01/08 09:15:27;;;;;;;19.07;11.37;;;-3.10;99.90;;;;;;5048129;28;20037;-83
2024/01/08 09:17:52;;;;;;;23.23;12.40;;;-3.10;99.90;;;;;;5045940;28;20047;-83
2024/01/08 09:20:18;;;;;;;14.00;9.17;;;-3.00;99.90;;;;;;5047821;28;20251;-83
2024/01/08 09:22:43;;;;;;;13.80;9.10;;;-3.10;99.90;;;;;;5047635;28;20025;-84
2024/01/08 09:25:09;;;;;;;15.03;9.83;;;-3.00;99.90;;;;;;5047725;28;20052;-84
2024/01/08 09:27:37;;;;;;;11.73;8.53;;;-3.00;99.90;;;;;;5048837;28;20032;-83
2024/01/08 09:30:05;;;;;;;15.50;9.27;;;-3.00;99.90;;;;;;5047627;28;20025;-83
2024/01/08 09:32:30;;;;;;;13.70;9.00;;;-3.00;99.90;;;;;;5047505;28;20057;-83
2024/01/08 09:34:56;;;;;;;14.53;9.70;;;-3.00;99.90;;;;;;5047997;28;20059;-83
2024/01/08 09:37:21;;;;;;;12.87;8.63;;;-3.00;99.90;;;;;;5048833;28;20029;-83
2024/01/08 09:39:47;;;;;;;11.57;7.90;;;-2.90;99.90;;;;;;5048540;28;20039;-83
2024/01/08 09:42:14;;;;;;;13.57;8.60;;;-2.90;99.90;;;;;;5048439;28;20131;-82
2024/01/08 09:44:47;;;;;;;12.47;8.17;;;-2.90;99.90;;;;;;5046522;28;20555;-83
2024/01/08 09:47:14;;;;;;;14.80;8.70;;;-2.80;99.90;;;;;;5048178;28;20032;-83
2024/01/08 09:49:40;;;;;;;17.57;9.73;;;-2.80;99.90;;;;;;5050162;28;20823;-84
2024/01/08 09:52:08;;;;;;;12.17;8.43;;;-2.80;99.90;;;;;;5049479;28;20087;-83
2024/01/08 09:54:36;;;;;;;14.00;8.93;;;-2.80;99.90;;;;;;5049004;28;20036;-84
2024/01/08 09:57:03;;;;;;;12.83;8.97;;;-2.80;99.90;;;;;;5046003;28;20043;-83
2024/01/08 09:59:29;;;;;;;13.40;8.77;;;-2.80;99.90;;;;;;5045205;28;20040;-83
2024/01/08 10:01:56;;;;;;;12.67;8.77;;;-2.80;99.90;;;;;;5047218;28;20029;-84
2024/01/08 10:04:24;;;;;;;13.07;8.63;;;-2.80;99.90;;;;;;5046009;28;20021;-83
2024/01/08 10:07:05;;;;;;;14.73;9.17;;;-2.80;99.90;;;;;;5048926;28;20029;-83
2024/01/08 10:09:31;;;;;;;16.47;10.13;;;-2.70;99.90;;;;;;5046268;28;20032;-83
2024/01/08 10:11:57;;;;;;;16.57;9.50;;;-2.70;99.90;;;;;;5048096;28;21017;-83
2024/01/08 10:14:25;;;;;;;16.53;9.87;;;-2.70;99.90;;;;;;5049497;28;20033;-84
2024/01/08 10:16:51;;;;;;;15.13;9.57;;;-2.60;99.90;;;;;;5048218;28;21499;-83
2024/01/08 10:19:18;;;;;;;16.87;10.07;;;-2.60;99.90;;;;;;5047971;28;20248;-84
2024/01/08 10:21:45;;;;;;;15.73;10.70;;;-2.60;99.90;;;;;;5047374;28;20035;-83
2024/01/08 10:24:10;;;;;;;15.23;9.57;;;-2.50;99.90;;;;;;5049770;28;20025;-83
2024/01/08 10:26:38;;;;;;;16.93;10.47;;;-2.50;99.90;;;;;;5047533;28;20052;-85
2024/01/08 10:29:03;;;;;;;15.90;10.13;;;-2.50;99.90;;;;;;5048877;28;20033;-85
2024/01/08 10:31:29;;;;;;;18.17;10.17;;;-2.50;99.90;;;;;;5049540;28;20056;-84
2024/01/08 10:34:04;;;;;;;15.43;9.53;;;-2.60;99.90;;;;;;5049435;28;20029;-85
2024/01/08 10:36:32;;;;;;;15.10;10.48;;;-2.60;99.90;;;;;;5050029;28;20045;-84
2024/01/08 10:39:02;;;;;;;15.30;10.67;;;-2.60;99.90;;;;;;5049460;28;20804;-84
2024/01/08 10:41:29;;;;;;;16.27;9.60;;;-2.60;99.90;;;;;;5049025;28;20099;-84
2024/01/08 10:43:54;;;;;;;16.97;10.10;;;-2.60;99.90;;;;;;5049034;28;20025;-84
2024/01/08 10:46:22;;;;;;;16.70;10.90;;;-2.60;99.90;;;;;;5050403;28;20040;-85
2024/01/08 10:48:50;;;;;;;16.67;11.27;;;-2.60;99.90;;;;;;5049037;28;20025;-84
2024/01/08 10:51:17;;;;;;;23.13;12.97;;;-2.50;99.90;;;;;;5048240;28;20021;-84
2024/01/08 10:53:44;;;;;;;18.70;11.37;;;-2.50;99.90;;;;;;5047503;28;20025;-84
2024/01/08 10:56:20;;;;;;;16.23;10.00;;;-2.40;99.90;;;;;;5049334;28;20027;-84
2024/01/08 10:59:05;;;;;;;16.90;12.83;;;-2.40;99.90;;;;;;5043387;28;20123;-84
2024/01/08 11:01:32;;;;;;;17.38;11.45;;;-2.40;99.90;;;;;;5050442;28;20025;-83
2024/01/08 11:03:59;;;;;;;14.40;10.43;;;-2.40;99.90;;;;;;5049740;28;20036;-83
2024/01/08 11:06:28;;;;;;;16.10;11.97;;;-2.40;99.90;;;;;;5047823;28;20475;-84
2024/01/08 11:08:56;;;;;;;13.53;10.03;;;-2.30;99.90;;;;;;5051847;28;20017;-84
2024/01/08 11:11:22;;;;;;;14.03;8.90;;;-2.30;99.90;;;;;;5052526;28;20513;-84
2024/01/08 11:13:49;;;;;;;11.63;8.80;;;-2.30;99.90;;;;;;5052920;28;20927;-83
2024/01/08 11:16:29;;;;;;;12.70;9.50;;;-2.30;99.90;;;;;;5052160;28;20111;-86
2024/01/08 11:19:19;;;;;;;13.27;8.77;;;-2.30;99.90;;;;;;5052509;28;20081;-83
2024/01/08 11:21:48;;;;;;;14.77;9.70;;;-2.30;99.90;;;;;;5052924;28;20032;-84
2024/01/08 11:24:14;;;;;;;13.20;9.73;;;-2.30;99.90;;;;;;5052315;28;20053;-83
2024/01/08 11:26:41;;;;;;;13.30;9.63;;;-2.30;99.90;;;;;;5052101;28;20037;-83
2024/01/08 11:29:09;;;;;;;13.83;9.07;;;-2.20;99.90;;;;;;5053198;28;20119;-84
2024/01/08 11:31:46;;;;;;;14.43;9.80;;;-2.20;99.90;;;;;;5052315;28;21522;-84
2024/01/08 11:34:40;;;;;;;13.40;9.10;;;-2.20;99.90;;;;;;5051623;28;20028;-83
2024/01/08 11:37:34;;;;;;;13.30;9.27;;;-2.20;99.90;;;;;;5052171;28;20025;-84
2024/01/08 11:40:10;;;;;;;13.87;9.50;;;-2.20;99.90;;;;;;5053059;28;20063;-84
2024/01/08 11:42:36;;;;;;;15.40;9.37;;;-2.10;99.90;;;;;;5053720;28;20029;-83
2024/01/08 11:45:02;;;;;;;11.83;8.80;;;-2.10;99.90;;;;;;5047836;28;20040;-84
2024/01/08 11:47:31;;;;;;;15.70;9.97;;;-2.00;99.90;;;;;;5051630;28;20055;-83
2024/01/08 11:49:56;;;;;;;16.17;10.60;;;-2.00;99.90;;;;;;5052534;28;20029;-83
2024/01/08 11:52:23;;;;;;;14.50;9.60;;;-2.00;99.90;;;;;;5053283;28;20029;-83
2024/01/08 11:54:49;;;;;;;14.03;9.70;;;-2.10;99.90;;;;;;5050741;28;20029;-84
2024/01/08 11:57:18;;;;;;;16.03;9.53;;;-2.00;99.90;;;;;;5052019;28;20025;-83
2024/01/08 11:59:45;;;;;;;13.53;9.97;;;-2.00;99.90;;;;;;5052434;28;20029;-83
2024/01/08 12:02:19;;;;;;;14.07;10.07;;;-2.00;99.90;;;;;;5052597;28;20037;-83
2024/01/08 12:04:58;;;;;;;14.47;9.13;;;-2.10;99.90;;;;;;5043601;28;20060;-84
2024/01/08 12:07:28;;;;;;;13.43;9.90;;;-2.10;99.90;;;;;;5050426;28;20043;-83
2024/01/08 12:09:55;;;;;;;12.40;10.37;;;-2.10;99.90;;;;;;5048451;28;20029;-84
2024/01/08 12:12:24;;;;;;;14.40;9.83;;;-2.10;99.90;;;;;;5049475;28;20124;-83
2024/01/08 12:14:51;;;;;;;14.63;9.17;;;-2.10;99.90;;;;;;5048357;28;20484;-83
2024/01/08 12:17:18;;;;;;;14.07;9.67;;;-2.00;99.90;;;;;;5051715;28;20037;-84
2024/01/08 12:19:54;;;;;;;13.27;10.00;;;-2.00;99.90;;;;;;5052135;28;20146;-83
2024/01/08 12:22:21;;;;;;;15.53;9.73;;;-2.00;99.90;;;;;;5055877;28;20028;-83
2024/01/08 12:24:49;;;;;;;14.70;9.70;;;-2.00;99.90;;;;;;5057806;28;20033;-83
2024/01/08 12:27:19;;;;;;;13.33;9.70;;;-2.00;99.90;;;;;;5054631;28;20021;-83
2024/01/08 12:29:47;;;;;;;14.97;10.10;;;-2.00;99.90;;;;;;5056008;28;20036;-83
2024/01/08 12:32:18;;;;;;;15.13;10.23;;;-2.00;99.90;;;;;;5055105;28;20017;-83
2024/01/08 12:34:43;;;;;;;15.33;10.13;;;-2.00;99.90;;;;;;5053503;28;20021;-83
2024/01/08 12:37:15;;;;;;;15.07;10.67;;;-2.00;99.90;;;;;;5054063;28;20129;-83